Time;durP1;ratioP1;P1;durP2;ratioP2;P2;SDS_P1;SDS_P2;PMS_P1;PMS_P2;Temp;Humidity;BMP_temperature;BMP_pressure;BME280_temperature;BME280_humidity;BME280_pressure;Samples;Min_cycle;Max_cycle;Signal;HPM_P1;HPM_P2
2022/04/30 00:00:43;;;;;;;5.65;2.40;;;17.90;99.90;;;;;;5068112;28;20750;-85
2022/04/30 00:03:10;;;;;;;5.30;2.42;;;17.90;99.90;;;;;;5064265;28;20430;-83
2022/04/30 00:05:37;;;;;;;5.50;2.40;;;17.90;99.90;;;;;;5056977;28;20390;-83
2022/04/30 00:08:05;;;;;;;6.50;2.35;;;17.90;99.90;;;;;;5064142;28;20382;-84
2022/04/30 00:10:37;;;;;;;4.55;2.53;;;18.00;99.90;;;;;;5067035;28;20719;-83
2022/04/30 00:13:10;;;;;;;3.53;2.60;;;17.90;99.90;;;;;;5067411;28;20478;-83
2022/04/30 00:15:39;;;;;;;4.43;2.90;;;17.90;99.90;;;;;;5067245;28;20446;-83
2022/04/30 00:18:06;;;;;;;5.82;2.70;;;17.90;99.90;;;;;;5066659;28;20878;-82
2022/04/30 00:20:36;;;;;;;5.20;3.00;;;17.80;99.90;;;;;;5065190;28;20436;-82
2022/04/30 00:23:04;;;;;;;5.95;2.95;;;17.70;99.90;;;;;;5066441;28;20432;-83
2022/04/30 00:25:32;;;;;;;6.03;3.25;;;17.80;99.90;;;;;;5066882;28;20408;-82
2022/04/30 00:27:59;;;;;;;5.38;3.00;;;17.90;99.90;;;;;;5067343;28;20400;-84
2022/04/30 00:30:26;;;;;;;4.75;2.88;;;17.80;99.90;;;;;;5067152;28;20900;-83
2022/04/30 00:32:54;;;;;;;4.88;2.88;;;17.90;99.90;;;;;;5066537;28;20378;-83
2022/04/30 00:35:21;;;;;;;6.35;2.70;;;17.90;99.90;;;;;;5066567;28;20374;-82
2022/04/30 00:37:48;;;;;;;3.47;2.08;;;17.90;99.90;;;;;;5067222;28;20374;-83
2022/04/30 00:40:15;;;;;;;3.33;2.05;;;17.90;99.90;;;;;;5065379;28;20406;-85
2022/04/30 00:42:42;;;;;;;2.90;2.25;;;17.90;99.90;;;;;;5066393;28;20409;-84
2022/04/30 00:45:10;;;;;;;4.88;2.25;;;17.90;99.90;;;;;;5070171;28;20467;-84
2022/04/30 00:47:37;;;;;;;4.22;2.15;;;17.80;99.90;;;;;;5069333;28;20389;-84
2022/04/30 00:50:05;;;;;;;3.65;2.88;;;17.90;99.90;;;;;;5066065;28;20390;-84
2022/04/30 00:52:33;;;;;;;4.97;4.50;;;17.90;99.90;;;;;;5066741;28;20409;-84
2022/04/30 00:55:02;;;;;;;7.53;5.20;;;17.90;99.90;;;;;;5065921;28;20476;-84
2022/04/30 00:57:32;;;;;;;4.60;3.42;;;17.90;99.90;;;;;;5066490;28;20390;-88
2022/04/30 01:00:01;;;;;;;3.15;2.30;;;17.90;99.90;;;;;;5066780;28;20877;-86
2022/04/30 01:02:29;;;;;;;2.17;1.50;;;17.80;99.90;;;;;;5065882;28;20397;-85
2022/04/30 01:05:02;;;;;;;2.92;1.52;;;17.80;99.90;;;;;;5065082;28;20386;-84
2022/04/30 01:07:31;;;;;;;3.72;1.40;;;17.80;99.90;;;;;;5066706;28;20897;-85
2022/04/30 01:09:58;;;;;;;3.60;1.42;;;17.80;99.90;;;;;;5066389;28;20385;-86
2022/04/30 01:12:27;;;;;;;2.55;1.17;;;17.80;99.90;;;;;;5070001;28;21037;-93
2022/04/30 01:14:56;;;;;;;2.10;1.00;;;17.70;99.90;;;;;;5070449;28;20921;-91
2022/04/30 01:17:23;;;;;;;3.38;1.00;;;17.80;99.90;;;;;;5072797;28;20858;-94
2022/04/30 01:19:52;;;;;;;2.58;1.00;;;17.80;99.90;;;;;;5074693;28;20390;-87
2022/04/30 01:22:33;;;;;;;2.27;1.10;;;17.80;99.90;;;;;;5072638;28;20410;-88
2022/04/30 01:25:02;;;;;;;4.30;1.10;;;17.80;99.90;;;;;;5073104;28;20373;-87
2022/04/30 01:27:30;;;;;;;3.05;1.00;;;17.80;99.90;;;;;;5072834;28;20552;-87
2022/04/30 01:30:04;;;;;;;2.10;0.90;;;17.80;99.90;;;;;;5073951;28;20436;-83
2022/04/30 01:38:02;;;;;;;1.17;0.90;;;17.70;99.90;;;;;;5078371;28;20722;-81
2022/04/30 01:40:30;;;;;;;2.42;0.90;;;17.70;99.90;;;;;;5081037;28;20433;-80
2022/04/30 01:43:01;;;;;;;1.43;0.80;;;17.70;99.90;;;;;;5080840;28;20414;-80
2022/04/30 01:45:35;;;;;;;2.00;1.00;;;17.70;99.90;;;;;;5081950;28;20381;-84
2022/04/30 01:48:05;;;;;;;1.80;0.90;;;17.70;99.90;;;;;;5054081;28;20469;-82
2022/04/30 01:50:36;;;;;;;2.85;1.00;;;17.90;99.90;;;;;;5078772;28;20378;-86
2022/04/30 01:53:03;;;;;;;2.63;1.05;;;17.90;99.90;;;;;;5075748;28;20365;-95
2022/04/30 01:55:31;;;;;;;1.63;0.98;;;17.90;99.90;;;;;;5070824;28;20387;-81
2022/04/30 01:57:57;;;;;;;1.55;1.00;;;18.00;99.90;;;;;;5069746;28;20447;-82
2022/04/30 02:00:25;;;;;;;5.63;1.40;;;18.10;99.90;;;;;;5069581;28;20402;-83
2022/04/30 02:02:54;;;;;;;2.28;1.10;;;18.20;99.90;;;;;;5069264;28;20921;-83
2022/04/30 02:05:22;;;;;;;2.33;0.98;;;18.30;99.90;;;;;;5072134;28;20431;-83
2022/04/30 02:07:58;;;;;;;2.17;1.10;;;18.30;99.90;;;;;;5070666;28;20378;-86
2022/04/30 02:10:26;;;;;;;1.55;1.00;;;18.20;99.90;;;;;;5069682;28;20381;-82
2022/04/30 02:12:54;;;;;;;2.42;1.08;;;18.00;99.90;;;;;;5070379;28;20810;-87
2022/04/30 02:15:21;;;;;;;1.00;0.90;;;17.90;99.90;;;;;;5071339;28;20378;-81
2022/04/30 02:17:49;;;;;;;2.60;0.90;;;17.80;99.90;;;;;;5070311;28;20461;-88
2022/04/30 02:20:33;;;;;;;1.48;0.90;;;17.90;99.90;;;;;;5069921;28;20382;-88
2022/04/30 02:23:03;;;;;;;1.07;0.90;;;17.90;99.90;;;;;;5069789;28;20416;-86
2022/04/30 02:25:31;;;;;;;1.15;0.80;;;18.00;99.90;;;;;;5070069;28;20393;-88
2022/04/30 02:28:04;;;;;;;2.00;0.93;;;18.00;99.90;;;;;;5069877;28;20382;-88
2022/04/30 02:30:35;;;;;;;2.60;0.85;;;18.00;99.90;;;;;;5069799;28;20555;-84
2022/04/30 02:33:08;;;;;;;2.42;0.90;;;18.00;99.90;;;;;;5069830;28;20384;-87
2022/04/30 02:35:37;;;;;;;1.88;0.82;;;18.00;99.90;;;;;;5069577;28;20905;-84
2022/04/30 02:38:08;;;;;;;2.03;1.00;;;18.00;99.90;;;;;;5069670;28;20854;-82
2022/04/30 02:40:37;;;;;;;2.55;0.85;;;18.10;99.90;;;;;;5069470;28;20420;-88
2022/04/30 02:43:08;;;;;;;1.02;0.90;;;18.10;99.90;;;;;;5069601;28;20385;-86
2022/04/30 02:45:37;;;;;;;1.08;0.90;;;18.10;99.90;;;;;;5069528;28;20369;-84
2022/04/30 02:48:06;;;;;;;2.42;1.10;;;18.00;99.90;;;;;;5069631;28;20439;-81
2022/04/30 02:50:34;;;;;;;1.60;1.20;;;18.00;99.90;;;;;;5069552;28;20733;-82
2022/04/30 02:53:01;;;;;;;2.67;1.20;;;18.10;99.90;;;;;;5069511;28;20374;-84
2022/04/30 02:55:28;;;;;;;2.50;1.00;;;18.10;99.90;;;;;;5069720;28;20378;-87
2022/04/30 03:00:47;;;;;;;1.25;1.00;;;18.00;99.90;;;;;;5069411;28;20384;-84
2022/04/30 03:03:15;;;;;;;1.30;0.90;;;18.10;99.90;;;;;;5068408;28;20374;-85
2022/04/30 03:05:44;;;;;;;1.60;0.90;;;18.10;99.90;;;;;;5069151;28;20737;-84
2022/04/30 03:08:18;;;;;;;1.50;1.00;;;18.20;99.90;;;;;;5069235;28;20374;-81
2022/04/30 03:10:46;;;;;;;2.67;1.17;;;18.20;99.90;;;;;;5068965;28;20876;-82
2022/04/30 03:13:15;;;;;;;2.40;1.23;;;18.30;99.90;;;;;;5069008;28;20374;-86
2022/04/30 03:15:46;;;;;;;2.97;1.00;;;18.30;99.90;;;;;;5067802;28;20788;-85
2022/04/30 03:23:36;;;;;;;2.50;1.20;;;18.30;99.90;;;;;;5068660;28;20386;-85
2022/04/30 03:26:05;;;;;;;2.33;1.25;;;18.30;99.90;;;;;;5068940;28;20453;-85
2022/04/30 03:28:39;;;;;;;1.80;1.20;;;18.40;99.90;;;;;;5068791;28;20362;-85
2022/04/30 03:31:07;;;;;;;2.15;1.30;;;18.40;99.90;;;;;;5068723;28;20378;-85
2022/04/30 03:33:34;;;;;;;2.27;1.20;;;18.40;99.90;;;;;;5068591;28;20369;-84
2022/04/30 03:36:02;;;;;;;1.48;1.25;;;18.40;99.90;;;;;;5068423;28;20850;-83
2022/04/30 03:38:32;;;;;;;2.13;1.30;;;18.50;99.90;;;;;;5068078;28;21497;-85
2022/04/30 03:40:59;;;;;;;1.20;1.10;;;18.40;99.90;;;;;;5068302;28;20903;-83
2022/04/30 03:43:26;;;;;;;1.83;1.20;;;18.40;99.90;;;;;;5068610;28;20396;-84
2022/04/30 03:45:53;;;;;;;3.05;1.20;;;18.50;99.90;;;;;;5068395;28;20730;-84
2022/04/30 03:48:20;;;;;;;1.92;1.20;;;18.50;99.90;;;;;;5068472;28;20417;-85
2022/04/30 03:50:47;;;;;;;2.22;1.23;;;18.40;99.90;;;;;;5068328;28;20787;-85
2022/04/30 03:53:14;;;;;;;2.45;1.38;;;18.50;99.90;;;;;;5068443;28;20380;-82
2022/04/30 03:55:41;;;;;;;2.00;1.20;;;18.50;99.90;;;;;;5066910;28;20831;-82
2022/04/30 03:58:08;;;;;;;1.80;1.20;;;18.50;99.90;;;;;;5068230;28;20367;-83
2022/04/30 04:00:35;;;;;;;2.67;1.23;;;18.50;99.90;;;;;;5067948;28;20440;-86
2022/04/30 04:03:03;;;;;;;2.30;1.08;;;18.50;99.90;;;;;;5068056;28;20448;-81
2022/04/30 04:05:31;;;;;;;1.90;1.10;;;18.50;99.90;;;;;;5067987;28;20367;-84
2022/04/30 04:07:59;;;;;;;1.50;1.10;;;18.60;99.90;;;;;;5068017;28;20381;-84
2022/04/30 04:10:26;;;;;;;2.17;1.10;;;18.60;99.90;;;;;;5067873;28;20425;-83
2022/04/30 04:17:37;;;;;;;1.90;1.10;;;18.70;99.90;;;;;;5067762;28;20453;-85
2022/04/30 04:18:25;;;;;;;2.97;1.60;;;18.80;99.90;;;;;;5068391;28;20366;-85
2022/04/30 04:20:52;;;;;;;3.50;1.77;;;18.90;99.90;;;;;;5067829;28;20409;-81
2022/04/30 04:23:19;;;;;;;3.17;1.80;;;18.90;99.90;;;;;;5067673;28;20761;-84
2022/04/30 04:26:01;;;;;;;3.72;1.73;;;19.00;99.90;;;;;;5067592;28;20392;-85
2022/04/30 04:28:29;;;;;;;2.72;1.65;;;19.00;99.90;;;;;;5067616;28;20921;-85
2022/04/30 04:30:57;;;;;;;3.05;1.80;;;19.10;99.90;;;;;;5067558;28;20410;-86
2022/04/30 04:33:24;;;;;;;2.87;1.40;;;19.10;99.90;;;;;;5066219;28;20464;-86
2022/04/30 04:35:51;;;;;;;2.17;1.40;;;19.20;99.90;;;;;;5067380;28;20400;-84
2022/04/30 04:38:18;;;;;;;2.00;1.27;;;19.20;99.90;;;;;;5067654;28;20374;-80
2022/04/30 04:40:44;;;;;;;2.00;1.27;;;19.30;99.90;;;;;;5067414;28;20389;-85
2022/04/30 04:43:11;;;;;;;2.72;1.40;;;19.40;99.90;;;;;;5067490;28;20382;-81
2022/04/30 04:45:39;;;;;;;2.80;1.27;;;19.50;99.90;;;;;;5067684;28;20406;-83
2022/04/30 04:48:08;;;;;;;2.30;1.23;;;19.60;99.90;;;;;;5067539;28;20460;-84
2022/04/30 04:50:35;;;;;;;2.70;1.35;;;19.70;99.90;;;;;;5067606;28;20405;-86
2022/04/30 04:53:02;;;;;;;2.60;1.30;;;19.80;99.90;;;;;;5067564;28;20499;-86
2022/04/30 04:55:29;;;;;;;1.70;1.20;;;19.80;99.90;;;;;;5067103;28;20401;-87
2022/04/30 04:57:56;;;;;;;2.25;1.10;;;19.80;99.90;;;;;;5067250;28;20413;-85
2022/04/30 05:00:23;;;;;;;1.98;1.00;;;19.80;99.90;;;;;;5066993;28;20913;-84
2022/04/30 05:02:53;;;;;;;1.20;0.80;;;19.90;99.90;;;;;;5066853;28;20474;-85
2022/04/30 05:05:20;;;;;;;2.05;0.88;;;19.80;99.90;;;;;;5067079;28;20437;-87
2022/04/30 05:07:47;;;;;;;1.42;0.90;;;19.90;99.90;;;;;;5066961;28;20366;-85
2022/04/30 05:10:15;;;;;;;3.00;0.90;;;19.80;99.90;;;;;;5066980;28;20904;-82
2022/04/30 05:12:45;;;;;;;1.92;0.80;;;19.80;99.90;;;;;;5066784;28;20443;-81
2022/04/30 05:15:13;;;;;;;1.10;0.73;;;19.70;99.90;;;;;;5067035;28;20386;-85
2022/04/30 05:17:40;;;;;;;1.37;0.70;;;19.70;99.90;;;;;;5066950;28;20384;-83
2022/04/30 05:20:07;;;;;;;1.23;0.70;;;19.90;99.90;;;;;;5066948;28;20374;-80
2022/04/30 05:22:34;;;;;;;2.00;0.70;;;20.10;99.90;;;;;;5066679;28;20467;-79
2022/04/30 05:25:02;;;;;;;3.50;0.70;;;20.10;99.90;;;;;;5066824;28;20850;-80
2022/04/30 05:27:29;;;;;;;1.17;0.80;;;20.10;99.90;;;;;;5066407;28;20390;-80
2022/04/30 05:29:56;;;;;;;1.60;0.70;;;20.40;99.90;;;;;;5066970;28;20519;-81
2022/04/30 05:32:24;;;;;;;1.10;0.60;;;20.70;99.90;;;;;;5066812;28;20879;-81
2022/04/30 05:34:50;;;;;;;1.50;0.70;;;21.00;99.90;;;;;;5066717;28;20381;-88
2022/04/30 05:37:17;;;;;;;2.37;0.90;;;20.90;99.90;;;;;;5066538;28;20401;-86
2022/04/30 05:39:44;;;;;;;1.47;0.80;;;20.70;99.90;;;;;;5066729;28;20397;-82
2022/04/30 05:42:11;;;;;;;1.92;0.75;;;20.60;99.90;;;;;;5066298;28;20402;-87
2022/04/30 05:44:38;;;;;;;2.47;0.80;;;20.50;99.90;;;;;;5066479;28;20691;-81
2022/04/30 05:47:05;;;;;;;1.77;0.70;;;20.50;99.90;;;;;;5066748;28;20427;-86
2022/04/30 05:49:32;;;;;;;1.30;0.70;;;20.50;99.90;;;;;;5066810;28;20374;-84
2022/04/30 05:51:59;;;;;;;1.58;0.75;;;20.40;99.90;;;;;;5066640;28;20382;-83
2022/04/30 05:54:28;;;;;;;1.15;0.70;;;20.40;99.90;;;;;;5065100;28;20884;-80
2022/04/30 05:56:55;;;;;;;1.80;0.70;;;20.20;99.90;;;;;;5066858;28;20760;-81
2022/04/30 05:59:22;;;;;;;0.77;0.67;;;20.10;99.90;;;;;;5066704;28;20793;-84
2022/04/30 06:01:49;;;;;;;1.13;0.80;;;20.10;99.90;;;;;;5066031;28;20413;-81
2022/04/30 06:04:16;;;;;;;1.70;0.77;;;20.00;99.90;;;;;;5066556;28;20406;-80
2022/04/30 06:06:44;;;;;;;1.35;0.80;;;20.00;99.90;;;;;;5066302;28;20455;-85
2022/04/30 06:09:11;;;;;;;1.50;0.90;;;20.00;99.90;;;;;;5066344;28;20888;-86
2022/04/30 06:11:39;;;;;;;2.20;1.00;;;20.00;99.90;;;;;;5066325;28;20738;-80
2022/04/30 06:14:06;;;;;;;1.00;0.85;;;20.00;99.90;;;;;;5066311;28;20425;-85
2022/04/30 06:16:33;;;;;;;2.67;1.10;;;20.00;99.90;;;;;;5066096;28;20385;-82
2022/04/30 06:19:00;;;;;;;1.65;1.02;;;20.00;99.90;;;;;;5066376;28;20381;-85
2022/04/30 06:21:26;;;;;;;2.55;1.10;;;19.90;99.90;;;;;;5065996;28;20405;-86
2022/04/30 06:23:53;;;;;;;1.65;1.20;;;19.80;99.90;;;;;;5066180;28;20378;-79
2022/04/30 06:26:20;;;;;;;1.92;1.52;;;19.70;99.90;;;;;;5066187;28;20417;-80
2022/04/30 06:28:47;;;;;;;3.23;2.40;;;19.70;99.90;;;;;;5066173;28;20919;-84
2022/04/30 06:31:14;;;;;;;3.60;2.60;;;19.70;99.90;;;;;;5066070;28;20378;-79
2022/04/30 06:33:41;;;;;;;3.00;2.70;;;19.70;99.90;;;;;;5066339;28;20405;-80
2022/04/30 06:36:08;;;;;;;3.35;1.85;;;19.70;99.90;;;;;;5065955;28;20370;-79
2022/04/30 06:38:35;;;;;;;3.10;1.98;;;19.70;99.90;;;;;;5066884;28;20887;-84
2022/04/30 06:41:02;;;;;;;1.80;1.55;;;19.50;99.90;;;;;;5069457;28;20889;-84
2022/04/30 06:43:29;;;;;;;2.90;1.35;;;19.40;99.90;;;;;;5069446;28;20374;-86
2022/04/30 06:45:56;;;;;;;2.95;1.30;;;19.20;99.90;;;;;;5069687;28;20796;-80
2022/04/30 06:48:23;;;;;;;1.88;1.20;;;19.00;99.90;;;;;;5069392;28;20449;-82
2022/04/30 06:50:50;;;;;;;5.75;2.40;;;18.90;99.90;;;;;;5069554;28;20374;-85
2022/04/30 06:58:54;;;;;;;5.13;3.30;;;18.50;99.90;;;;;;5069691;28;20922;-80
2022/04/30 07:01:29;;;;;;;4.75;2.70;;;18.30;99.90;;;;;;5069144;28;20840;-81
2022/04/30 07:04:02;;;;;;;3.97;2.42;;;18.20;99.90;;;;;;5069277;28;20373;-84
2022/04/30 07:06:29;;;;;;;4.65;2.30;;;18.00;99.90;;;;;;5069053;28;20925;-80
2022/04/30 07:08:56;;;;;;;3.30;2.17;;;17.90;99.90;;;;;;5069181;28;20384;-80
2022/04/30 07:11:23;;;;;;;4.40;1.95;;;17.80;99.90;;;;;;5069050;28;20436;-80
2022/04/30 07:13:50;;;;;;;3.28;2.08;;;17.70;99.90;;;;;;5069050;28;20374;-82
2022/04/30 07:16:17;;;;;;;4.30;1.88;;;17.60;99.90;;;;;;5069073;28;20382;-82
2022/04/30 07:18:44;;;;;;;4.05;2.03;;;17.50;99.90;;;;;;5069086;28;20380;-79
2022/04/30 07:21:11;;;;;;;2.38;1.92;;;17.40;99.90;;;;;;5068752;28;20389;-86
2022/04/30 07:23:38;;;;;;;2.92;1.77;;;17.30;99.90;;;;;;5069197;28;20404;-82
2022/04/30 07:26:05;;;;;;;3.53;1.80;;;17.20;99.90;;;;;;5067624;28;20873;-83
2022/04/30 07:28:35;;;;;;;4.30;2.13;;;17.10;99.90;;;;;;5068770;28;20370;-80
2022/04/30 07:31:08;;;;;;;3.63;1.85;;;17.00;99.90;;;;;;5068817;28;20845;-86
2022/04/30 07:33:35;;;;;;;4.38;2.08;;;17.00;99.90;;;;;;5068734;28;20386;-84
2022/04/30 07:36:03;;;;;;;2.45;1.90;;;16.90;99.90;;;;;;5068742;28;20381;-86
2022/04/30 07:38:30;;;;;;;3.60;2.00;;;16.80;99.90;;;;;;5068489;28;20408;-82
2022/04/30 07:40:57;;;;;;;3.85;1.80;;;16.70;99.90;;;;;;5068325;28;20409;-85
2022/04/30 07:43:24;;;;;;;3.35;2.10;;;16.60;99.90;;;;;;5068671;28;20370;-84
2022/04/30 07:45:51;;;;;;;4.63;2.30;;;16.60;99.90;;;;;;5068647;28;20788;-81
2022/04/30 07:48:19;;;;;;;5.05;2.40;;;16.50;99.90;;;;;;5070549;28;20465;-86
2022/04/30 07:50:46;;;;;;;4.85;2.45;;;16.40;99.90;;;;;;5067941;28;20373;-82
2022/04/30 07:53:17;;;;;;;3.38;2.72;;;16.40;99.90;;;;;;5070353;28;20378;-79
2022/04/30 07:55:44;;;;;;;4.63;2.93;;;16.30;99.90;;;;;;5068323;28;20421;-82
2022/04/30 07:58:11;;;;;;;6.07;2.90;;;16.30;99.90;;;;;;5068277;28;20401;-79
2022/04/30 08:00:38;;;;;;;5.75;3.00;;;16.20;99.90;;;;;;5067805;28;20742;-83
2022/04/30 08:03:05;;;;;;;4.38;3.20;;;16.10;99.90;;;;;;5068397;28;20896;-85
2022/04/30 08:05:32;;;;;;;5.05;4.18;;;16.10;99.90;;;;;;5068397;28;20427;-80
2022/04/30 08:07:59;;;;;;;8.75;5.50;;;16.00;99.90;;;;;;5068350;28;20386;-85
2022/04/30 08:10:26;;;;;;;11.40;6.72;;;16.00;99.90;;;;;;5066956;28;20375;-79
2022/04/30 08:12:54;;;;;;;9.68;6.22;;;15.90;99.90;;;;;;5068226;28;20885;-79
2022/04/30 08:15:25;;;;;;;7.63;5.97;;;15.90;99.90;;;;;;5067700;28;20431;-80
2022/04/30 08:17:58;;;;;;;7.75;6.22;;;15.90;99.90;;;;;;5068522;28;20386;-86
2022/04/30 08:20:25;;;;;;;7.57;5.50;;;15.90;99.90;;;;;;5068019;28;20374;-79
2022/04/30 08:22:52;;;;;;;9.00;5.70;;;15.80;99.90;;;;;;5067998;28;20398;-80
2022/04/30 08:25:19;;;;;;;7.93;5.45;;;15.80;99.90;;;;;;5067777;28;20366;-82
2022/04/30 08:27:46;;;;;;;6.65;5.80;;;15.70;99.90;;;;;;5067769;28;20410;-83
2022/04/30 08:30:13;;;;;;;8.63;6.07;;;15.70;99.90;;;;;;5068485;28;20374;-85
2022/04/30 08:32:40;;;;;;;7.80;5.80;;;15.70;99.90;;;;;;5067799;28;20412;-82
2022/04/30 08:35:07;;;;;;;7.00;4.80;;;15.60;99.90;;;;;;5068044;28;20374;-88
2022/04/30 08:37:34;;;;;;;6.10;4.43;;;15.60;99.90;;;;;;5068136;28;20381;-87
2022/04/30 08:40:02;;;;;;;4.50;3.50;;;15.60;99.90;;;;;;5067927;28;20938;-80
2022/04/30 08:42:31;;;;;;;4.53;3.00;;;15.50;99.90;;;;;;5067815;28;20401;-83
2022/04/30 08:44:59;;;;;;;4.95;3.80;;;15.50;99.90;;;;;;5067660;28;20409;-85
2022/04/30 08:47:26;;;;;;;11.27;8.20;;;15.50;99.90;;;;;;5067752;28;20382;-85
2022/04/30 08:49:55;;;;;;;9.20;7.15;;;15.50;99.90;;;;;;5067673;28;20457;-82
2022/04/30 08:52:22;;;;;;;8.55;7.43;;;15.50;99.90;;;;;;5067182;28;20365;-77
2022/04/30 08:54:49;;;;;;;7.57;5.60;;;15.40;99.90;;;;;;5067381;28;20478;-86
2022/04/30 08:57:16;;;;;;;7.05;5.70;;;15.30;99.90;;;;;;5068313;28;20376;-87
2022/04/30 08:59:43;;;;;;;7.45;5.55;;;15.20;99.90;;;;;;5067373;28;20396;-81
2022/04/30 09:02:12;;;;;;;6.30;3.65;;;15.20;99.90;;;;;;5066698;28;20777;-80
2022/04/30 09:04:49;;;;;;;16.23;13.27;;;15.10;99.90;;;;;;5066554;28;20366;-85
2022/04/30 09:07:22;;;;;;;11.90;10.20;;;15.10;99.90;;;;;;5068175;28;20382;-87
2022/04/30 09:10:02;;;;;;;9.65;6.35;;;15.00;99.90;;;;;;5067494;28;20370;-88
2022/04/30 09:12:31;;;;;;;5.25;2.83;;;15.00;99.90;;;;;;5067028;28;20380;-81
2022/04/30 09:14:59;;;;;;;3.63;1.90;;;15.00;99.90;;;;;;5067033;28;20398;-80
2022/04/30 09:17:29;;;;;;;5.25;2.05;;;15.00;99.90;;;;;;5065589;28;20807;-81
2022/04/30 09:20:01;;;;;;;5.82;2.50;;;15.10;99.90;;;;;;5066822;28;20415;-80
2022/04/30 09:22:38;;;;;;;2.83;1.40;;;15.00;99.90;;;;;;5066605;28;20410;-86
2022/04/30 09:25:15;;;;;;;3.67;1.52;;;14.90;99.90;;;;;;5066944;28;20361;-83
2022/04/30 09:27:44;;;;;;;3.05;1.58;;;15.10;99.90;;;;;;5066824;28;20409;-81
2022/04/30 09:30:21;;;;;;;2.10;1.33;;;15.10;99.90;;;;;;5066951;28;20696;-80
2022/04/30 09:33:04;;;;;;;3.30;1.50;;;15.10;99.90;;;;;;5067069;28;20384;-83
2022/04/30 09:38:18;;;;;;;2.45;1.27;;;15.10;99.90;;;;;;5067265;28;20407;-80
2022/04/30 09:40:57;;;;;;;3.10;1.17;;;15.00;99.90;;;;;;5066562;28;20739;-83
2022/04/30 09:43:37;;;;;;;2.83;0.90;;;15.00;99.90;;;;;;5065479;28;20447;-80
2022/04/30 09:46:08;;;;;;;2.60;0.80;;;15.00;99.90;;;;;;5066604;28;20382;-80
2022/04/30 09:54:07;;;;;;;2.55;1.17;;;14.90;99.90;;;;;;5066487;28;20900;-80
2022/04/30 09:56:38;;;;;;;2.47;1.10;;;14.60;99.90;;;;;;5066547;28;20372;-85
2022/04/30 09:59:11;;;;;;;4.17;1.30;;;14.50;99.90;;;;;;5066500;28;20379;-83
2022/04/30 10:01:43;;;;;;;2.30;1.90;;;14.40;99.90;;;;;;5066396;28;20459;-79
2022/04/30 10:04:17;;;;;;;4.70;2.30;;;14.40;99.90;;;;;;5066319;28;20384;-79
2022/04/30 10:06:46;;;;;;;3.90;1.90;;;14.30;99.90;;;;;;5066379;28;20508;-84
2022/04/30 10:09:28;;;;;;;2.50;1.30;;;14.20;99.90;;;;;;5066329;28;20374;-83
2022/04/30 10:12:21;;;;;;;2.67;1.05;;;14.30;99.90;;;;;;5066981;28;20378;-81
2022/04/30 10:15:04;;;;;;;3.28;1.20;;;14.30;99.90;;;;;;5069487;28;20891;-81
2022/04/30 10:17:36;;;;;;;4.22;1.10;;;14.30;99.90;;;;;;5070230;28;20389;-81
2022/04/30 10:20:32;;;;;;;2.92;1.10;;;14.30;99.90;;;;;;5070347;28;20366;-81
2022/04/30 10:22:58;;;;;;;2.78;1.20;;;14.20;99.90;;;;;;5069532;28;20489;-80
2022/04/30 10:25:34;;;;;;;4.90;1.00;;;14.00;99.90;;;;;;5069767;28;20471;-81
2022/04/30 10:28:18;;;;;;;3.92;1.30;;;13.90;99.90;;;;;;5069838;28;20366;-84
2022/04/30 10:30:57;;;;;;;4.67;1.10;;;13.80;99.90;;;;;;5069905;28;20389;-83
2022/04/30 10:33:25;;;;;;;4.50;1.00;;;13.70;99.90;;;;;;5069974;28;20374;-80
2022/04/30 10:36:12;;;;;;;2.72;1.10;;;13.70;99.90;;;;;;5068646;28;20498;-80
2022/04/30 10:38:40;;;;;;;2.95;1.10;;;13.70;99.90;;;;;;5069870;28;20378;-81
2022/04/30 10:41:12;;;;;;;5.00;1.30;;;13.60;99.90;;;;;;5069508;28;20390;-85
2022/04/30 10:43:40;;;;;;;12.05;6.88;;;13.60;99.90;;;;;;5069564;28;20374;-82
2022/04/30 10:46:13;;;;;;;7.43;4.43;;;13.50;99.90;;;;;;5068518;28;20374;-83
2022/04/30 10:48:40;;;;;;;4.43;1.63;;;13.50;99.90;;;;;;5069532;28;20456;-80
2022/04/30 10:51:13;;;;;;;4.47;1.50;;;13.50;99.90;;;;;;5069625;28;20389;-82
2022/04/30 10:53:42;;;;;;;2.33;1.20;;;13.50;99.90;;;;;;5069451;28;20877;-82
2022/04/30 10:56:10;;;;;;;3.60;1.10;;;13.40;99.90;;;;;;5069418;28;20481;-80
2022/04/30 10:58:38;;;;;;;3.90;1.00;;;13.50;99.90;;;;;;5069412;28;20367;-84
2022/04/30 11:01:18;;;;;;;2.60;1.23;;;13.50;99.90;;;;;;5069584;28;20418;-79
2022/04/30 11:03:50;;;;;;;4.97;1.30;;;13.60;99.90;;;;;;5069368;28;20376;-79
2022/04/30 11:06:23;;;;;;;2.30;1.30;;;13.60;99.90;;;;;;5069011;28;20817;-80
2022/04/30 11:09:07;;;;;;;3.28;1.50;;;13.60;99.90;;;;;;5069227;28;20377;-82
2022/04/30 11:11:36;;;;;;;8.77;1.08;;;13.50;99.90;;;;;;5069176;28;20506;-80
2022/04/30 11:14:12;;;;;;;3.42;1.17;;;13.50;99.90;;;;;;5069136;28;20427;-81
2022/04/30 11:16:42;;;;;;;3.60;1.20;;;13.60;99.90;;;;;;5069244;28;20382;-83
2022/04/30 11:19:11;;;;;;;3.00;1.30;;;13.60;99.90;;;;;;5069283;28;20923;-83
2022/04/30 11:21:40;;;;;;;3.00;1.10;;;13.50;99.90;;;;;;5068743;28;20409;-85
2022/04/30 11:24:08;;;;;;;2.10;1.20;;;13.50;99.90;;;;;;5068046;28;20386;-85
2022/04/30 11:26:39;;;;;;;2.97;1.00;;;13.40;99.90;;;;;;5068881;28;20392;-85
2022/04/30 11:29:14;;;;;;;3.90;0.95;;;13.30;99.90;;;;;;5068888;28;20369;-87
2022/04/30 11:31:45;;;;;;;3.30;1.10;;;13.20;99.90;;;;;;5069022;28;20386;-84
2022/04/30 11:34:15;;;;;;;2.90;1.13;;;13.20;99.90;;;;;;5068864;28;20378;-79
2022/04/30 11:36:45;;;;;;;3.85;1.30;;;13.10;99.90;;;;;;5068773;28;20467;-81
2022/04/30 11:39:13;;;;;;;6.67;1.50;;;13.10;99.90;;;;;;5068709;28;20370;-79
2022/04/30 11:41:48;;;;;;;4.60;1.40;;;13.00;99.90;;;;;;5068517;28;20404;-80
2022/04/30 11:44:17;;;;;;;5.07;1.20;;;13.00;99.90;;;;;;5068595;28;20848;-80
2022/04/30 11:46:45;;;;;;;3.95;1.75;;;13.00;99.90;;;;;;5067137;28;20382;-84
2022/04/30 11:49:20;;;;;;;5.40;4.15;;;13.00;99.90;;;;;;5068517;28;20893;-80
2022/04/30 11:51:48;;;;;;;5.25;3.00;;;12.90;99.90;;;;;;5068259;28;20850;-86
2022/04/30 11:54:18;;;;;;;5.65;1.90;;;12.80;99.90;;;;;;5069331;28;20405;-81
2022/04/30 11:56:48;;;;;;;3.85;1.58;;;12.70;99.90;;;;;;5069736;28;20805;-82
2022/04/30 11:59:15;;;;;;;3.85;2.40;;;12.70;99.90;;;;;;5069393;28;20428;-80
2022/04/30 12:01:42;;;;;;;4.40;2.00;;;12.60;99.90;;;;;;5069001;28;20420;-80
2022/04/30 12:04:11;;;;;;;6.07;2.17;;;12.50;99.90;;;;;;5069273;28;20874;-81
2022/04/30 12:06:40;;;;;;;6.20;2.08;;;12.50;99.90;;;;;;5069194;28;20505;-84
2022/04/30 12:09:18;;;;;;;7.82;1.73;;;12.50;99.90;;;;;;5069461;28;20867;-87
2022/04/30 12:11:50;;;;;;;5.13;1.30;;;12.40;99.90;;;;;;5069143;28;20378;-80
2022/04/30 12:14:18;;;;;;;5.78;1.70;;;12.40;99.90;;;;;;5069141;28;20370;-87
2022/04/30 12:16:47;;;;;;;5.88;1.40;;;12.30;99.90;;;;;;5066730;28;20792;-87
2022/04/30 12:25:06;;;;;;;2.88;1.30;;;12.30;99.90;;;;;;5067567;28;20440;-87
2022/04/30 12:27:34;;;;;;;3.65;1.35;;;12.20;99.90;;;;;;5067844;28;20385;-84
2022/04/30 12:30:18;;;;;;;3.50;1.25;;;12.20;99.90;;;;;;5067849;28;20417;-86
2022/04/30 12:33:04;;;;;;;2.80;1.27;;;12.20;99.90;;;;;;5067996;28;20385;-81
2022/04/30 12:35:38;;;;;;;6.17;1.40;;;12.20;99.90;;;;;;5067402;28;20370;-86
2022/04/30 12:38:09;;;;;;;3.25;1.20;;;12.10;99.90;;;;;;5067729;28;20411;-81
2022/04/30 12:40:39;;;;;;;4.28;1.20;;;12.10;99.90;;;;;;5067711;28;20398;-84
2022/04/30 12:43:06;;;;;;;3.40;1.20;;;12.00;99.90;;;;;;5067503;28;20370;-82
2022/04/30 12:45:34;;;;;;;3.00;1.20;;;12.00;99.90;;;;;;5067529;28;20462;-80
2022/04/30 12:48:04;;;;;;;2.85;1.30;;;12.00;99.90;;;;;;5067480;28;20417;-85
2022/04/30 12:50:32;;;;;;;3.97;1.55;;;11.90;99.90;;;;;;5067557;28;20457;-85
2022/04/30 12:53:00;;;;;;;6.77;1.63;;;11.90;99.90;;;;;;5067710;28;20381;-83
2022/04/30 12:55:29;;;;;;;5.03;1.73;;;11.80;99.90;;;;;;5067318;28;20390;-85
2022/04/30 12:57:57;;;;;;;6.82;2.00;;;11.80;99.90;;;;;;5067412;28;20888;-83
2022/04/30 13:00:25;;;;;;;8.32;2.30;;;11.80;99.90;;;;;;5067300;28;20375;-82
2022/04/30 13:02:52;;;;;;;10.75;2.90;;;11.70;99.90;;;;;;5067256;28;20386;-85
2022/04/30 13:05:19;;;;;;;12.60;3.47;;;11.60;99.90;;;;;;5066723;28;20373;-87
2022/04/30 13:07:46;;;;;;;11.23;3.13;;;11.60;99.90;;;;;;5067334;28;20378;-80
2022/04/30 13:15:45;;;;;;;14.80;3.37;;;11.50;99.90;;;;;;5067174;28;20884;-85
2022/04/30 13:18:12;;;;;;;15.45;2.83;;;11.40;99.90;;;;;;5067953;28;20396;-85
2022/04/30 13:20:39;;;;;;;9.65;2.70;;;11.40;99.90;;;;;;5067082;28;20439;-81
2022/04/30 13:23:08;;;;;;;7.20;2.60;;;11.40;99.90;;;;;;5066972;28;20394;-82
2022/04/30 13:25:36;;;;;;;13.07;3.80;;;11.50;99.90;;;;;;5066740;28;20430;-85
2022/04/30 13:28:04;;;;;;;11.02;4.10;;;11.40;99.90;;;;;;5067071;28;20384;-83
2022/04/30 13:30:31;;;;;;;13.88;3.83;;;11.30;99.90;;;;;;5066959;28;20439;-85
2022/04/30 13:32:58;;;;;;;7.30;3.55;;;11.30;99.90;;;;;;5067106;28;21190;-82
2022/04/30 13:35:25;;;;;;;9.93;3.58;;;11.30;99.90;;;;;;5066850;28;20374;-86
2022/04/30 13:37:54;;;;;;;8.57;2.97;;;11.30;99.90;;;;;;5066848;28;20378;-82